Time;durP1;ratioP1;P1;durP2;ratioP2;P2;SDS_P1;SDS_P2;PMS_P1;PMS_P2;Temp;Humidity;BMP_temperature;BMP_pressure;BME280_temperature;BME280_humidity;BME280_pressure;Samples;Min_cycle;Max_cycle;Signal;HPM_P1;HPM_P2
2022/01/01 00:01:30;;;;;;;15.77;10.90;;;10.90;99.90;;;;;;4973067;28;20034;-82
2022/01/01 00:03:55;;;;;;;14.88;9.95;;;10.90;99.90;;;;;;4956100;28;20141;-82
2022/01/01 00:06:21;;;;;;;14.00;10.10;;;10.90;99.90;;;;;;4961636;28;20030;-82
2022/01/01 00:08:46;;;;;;;12.68;9.77;;;10.90;99.90;;;;;;4959484;28;20050;-83
2022/01/01 00:11:13;;;;;;;14.20;9.98;;;10.90;99.90;;;;;;4959827;28;20035;-83
2022/01/01 00:13:39;;;;;;;14.98;9.93;;;10.90;99.90;;;;;;4617592;28;10000490;-83
2022/01/01 00:16:09;;;;;;;13.60;9.40;;;10.90;99.90;;;;;;4953236;28;20031;-83
2022/01/01 00:18:41;;;;;;;13.75;9.27;;;10.90;99.90;;;;;;4965363;28;20165;-83
2022/01/01 00:21:07;;;;;;;14.38;9.63;;;10.90;99.90;;;;;;4962280;28;20573;-83
2022/01/01 00:23:33;;;;;;;13.85;10.07;;;10.90;99.90;;;;;;4970087;28;20034;-83
2022/01/01 00:25:59;;;;;;;16.20;11.05;;;10.90;99.90;;;;;;4960059;28;20522;-83
2022/01/01 00:28:25;;;;;;;13.68;10.32;;;10.90;99.90;;;;;;4967727;28;20038;-83
2022/01/01 00:30:50;;;;;;;13.18;9.77;;;10.90;99.90;;;;;;4956125;28;20027;-84
2022/01/01 00:33:16;;;;;;;13.95;9.40;;;10.80;99.90;;;;;;4970709;28;20516;-84
2022/01/01 00:35:42;;;;;;;13.20;9.40;;;10.90;99.90;;;;;;4959350;28;20502;-83
2022/01/01 00:38:09;;;;;;;13.52;9.82;;;10.90;99.90;;;;;;4968658;28;20046;-84
2022/01/01 00:40:35;;;;;;;11.52;9.02;;;10.90;99.90;;;;;;4962850;28;20454;-83
2022/01/01 00:43:01;;;;;;;14.20;8.50;;;10.90;99.90;;;;;;4962392;28;20039;-83
2022/01/01 00:45:27;;;;;;;10.93;8.38;;;10.90;99.90;;;;;;4959066;28;20030;-84
2022/01/01 00:47:52;;;;;;;10.32;8.10;;;10.90;99.90;;;;;;4960890;28;20039;-83
2022/01/01 00:50:18;;;;;;;10.40;8.25;;;10.90;99.90;;;;;;4964976;28;20321;-84
2022/01/01 00:52:44;;;;;;;12.48;7.80;;;10.90;99.90;;;;;;4968063;28;20027;-84
2022/01/01 00:55:10;;;;;;;8.98;7.22;;;10.90;99.90;;;;;;4964149;28;20565;-84
2022/01/01 00:57:36;;;;;;;9.32;7.80;;;10.90;99.90;;;;;;4966521;28;20031;-84
2022/01/01 01:00:04;;;;;;;9.45;7.35;;;10.90;99.90;;;;;;4962317;28;20038;-84
2022/01/01 01:02:30;;;;;;;8.38;6.57;;;11.00;99.90;;;;;;4964577;28;20170;-83
2022/01/01 01:04:56;;;;;;;9.05;6.45;;;11.00;99.90;;;;;;4964125;28;20038;-84
2022/01/01 01:07:22;;;;;;;11.02;6.60;;;11.00;99.90;;;;;;4958088;28;20666;-84
2022/01/01 01:09:47;;;;;;;8.85;6.43;;;11.00;99.90;;;;;;4962020;28;20058;-83
2022/01/01 01:12:13;;;;;;;10.85;6.85;;;11.00;99.90;;;;;;4964089;28;20034;-83
2022/01/01 01:14:42;;;;;;;10.02;7.13;;;11.00;99.90;;;;;;4964470;28;20571;-83
2022/01/01 01:17:10;;;;;;;9.65;7.22;;;11.00;99.90;;;;;;4965008;28;20478;-83
2022/01/01 01:19:35;;;;;;;10.52;7.00;;;11.00;99.90;;;;;;4963888;28;20089;-84
2022/01/01 01:22:01;;;;;;;11.57;6.82;;;11.00;99.90;;;;;;4960658;28;20056;-83
2022/01/01 01:24:27;;;;;;;9.90;7.40;;;11.00;99.90;;;;;;4967380;28;20038;-83
2022/01/01 01:26:53;;;;;;;10.35;7.75;;;11.00;99.90;;;;;;4965060;28;20043;-84
2022/01/01 01:29:19;;;;;;;10.50;8.13;;;10.90;99.90;;;;;;4964381;28;20042;-84
2022/01/01 01:31:47;;;;;;;11.05;7.95;;;10.90;99.90;;;;;;4965516;28;20035;-84
2022/01/01 01:34:12;;;;;;;11.48;8.05;;;10.90;99.90;;;;;;4962602;28;20030;-85
2022/01/01 01:36:38;;;;;;;10.55;8.10;;;10.90;99.90;;;;;;4956292;28;20031;-84
2022/01/01 01:39:05;;;;;;;17.63;10.90;;;10.90;99.90;;;;;;4963005;28;20035;-84
2022/01/01 01:41:31;;;;;;;11.82;9.18;;;10.90;99.90;;;;;;4968059;28;20050;-84
2022/01/01 01:44:03;;;;;;;14.13;9.50;;;10.90;99.90;;;;;;4962598;28;20034;-84
2022/01/01 01:46:28;;;;;;;14.27;8.80;;;10.90;99.90;;;;;;4956080;28;20510;-84
2022/01/01 01:48:54;;;;;;;13.32;8.73;;;10.80;99.90;;;;;;4960504;28;20302;-84
2022/01/01 01:51:20;;;;;;;11.27;8.75;;;10.90;99.90;;;;;;4961945;28;20027;-83
2022/01/01 01:53:46;;;;;;;12.65;9.50;;;10.90;99.90;;;;;;4965072;28;20025;-84
2022/01/01 01:56:12;;;;;;;15.00;9.88;;;10.90;99.90;;;;;;4966322;28;20328;-84
2022/01/01 01:58:38;;;;;;;12.23;9.48;;;10.90;99.90;;;;;;4967077;28;20065;-84
2022/01/01 02:01:23;;;;;;;16.35;10.07;;;10.90;99.90;;;;;;4967272;28;20027;-83
2022/01/01 02:03:50;;;;;;;18.63;10.40;;;10.90;99.90;;;;;;4957606;28;20027;-83
2022/01/01 02:06:18;;;;;;;14.23;9.32;;;10.90;99.90;;;;;;4966214;28;20038;-85
2022/01/01 02:08:44;;;;;;;16.67;10.25;;;10.90;99.90;;;;;;4961874;28;20070;-83
2022/01/01 02:11:10;;;;;;;13.35;9.88;;;10.80;99.90;;;;;;4960226;28;20046;-85
2022/01/01 02:13:49;;;;;;;14.82;10.13;;;10.90;99.90;;;;;;4963500;28;20027;-85
2022/01/01 02:18:54;;;;;;;14.15;10.25;;;10.90;99.90;;;;;;4959989;28;20491;-82
2022/01/01 02:21:20;;;;;;;15.88;10.38;;;10.90;99.90;;;;;;4955685;28;20507;-83
2022/01/01 02:23:47;;;;;;;15.95;10.15;;;10.90;99.90;;;;;;4963726;28;20093;-87
2022/01/01 02:26:16;;;;;;;16.13;10.30;;;10.90;99.90;;;;;;4962782;28;20054;-88
2022/01/01 02:28:43;;;;;;;14.02;9.68;;;10.90;99.90;;;;;;4966513;28;20038;-88
2022/01/01 02:31:09;;;;;;;16.35;10.63;;;10.80;99.90;;;;;;4956400;28;20102;-88
2022/01/01 02:33:37;;;;;;;16.13;9.52;;;10.90;99.90;;;;;;4970619;28;20110;-87
2022/01/01 02:36:04;;;;;;;14.23;9.38;;;10.80;99.90;;;;;;4965027;28;20442;-88
2022/01/01 02:38:32;;;;;;;14.73;9.88;;;10.80;99.90;;;;;;4953667;28;20114;-88
2022/01/01 02:40:58;;;;;;;16.65;9.73;;;10.80;99.90;;;;;;4961433;28;20243;-86
2022/01/01 02:43:25;;;;;;;13.77;9.20;;;10.80;99.90;;;;;;4958010;28;20043;-86
2022/01/01 02:45:51;;;;;;;15.90;10.05;;;10.80;99.90;;;;;;4959370;28;20069;-86
2022/01/01 02:48:16;;;;;;;13.13;9.45;;;10.80;99.90;;;;;;4961310;28;20031;-85
2022/01/01 02:50:42;;;;;;;13.20;8.85;;;10.80;99.90;;;;;;4971397;28;20023;-86
2022/01/01 02:53:14;;;;;;;15.07;9.45;;;10.80;99.90;;;;;;4964714;28;20065;-87
2022/01/01 02:55:41;;;;;;;16.20;9.55;;;10.80;99.90;;;;;;4955730;28;20526;-86
2022/01/01 02:58:08;;;;;;;13.93;8.75;;;10.80;99.90;;;;;;4961900;28;20031;-86
2022/01/01 03:00:34;;;;;;;13.35;8.65;;;10.80;99.90;;;;;;4959896;28;20240;-86
2022/01/01 03:03:00;;;;;;;18.20;9.73;;;10.80;99.90;;;;;;4964729;28;20031;-86
2022/01/01 03:05:25;;;;;;;14.05;9.50;;;10.80;99.90;;;;;;4960967;28;20603;-86
2022/01/01 03:07:51;;;;;;;13.88;8.68;;;10.80;99.90;;;;;;4961628;28;20042;-86
2022/01/01 03:10:16;;;;;;;14.90;9.35;;;10.80;99.90;;;;;;4961046;28;20039;-86
2022/01/01 03:12:42;;;;;;;13.45;8.88;;;10.80;99.90;;;;;;4967833;28;20114;-86
2022/01/01 03:15:08;;;;;;;13.10;8.55;;;10.80;99.90;;;;;;4957797;28;20035;-86
2022/01/01 03:17:34;;;;;;;13.65;9.00;;;10.80;99.90;;;;;;4960430;28;20114;-88
2022/01/01 03:19:59;;;;;;;18.08;8.50;;;10.80;99.90;;;;;;4959987;28;20038;-87
2022/01/01 03:22:25;;;;;;;11.52;8.40;;;10.80;99.90;;;;;;4964331;28;20034;-87
2022/01/01 03:24:50;;;;;;;14.23;8.27;;;10.80;99.90;;;;;;4961942;28;20023;-87
2022/01/01 03:27:16;;;;;;;11.80;7.45;;;10.80;99.90;;;;;;4964756;28;20118;-87
2022/01/01 03:29:42;;;;;;;13.05;8.35;;;10.90;99.90;;;;;;4954186;28;20169;-88
2022/01/01 03:32:07;;;;;;;15.40;7.85;;;10.90;99.90;;;;;;4966454;28;20027;-87
2022/01/01 03:34:33;;;;;;;14.25;8.35;;;10.80;99.90;;;;;;4955051;28;20261;-87
2022/01/01 03:36:58;;;;;;;11.73;8.00;;;10.80;99.90;;;;;;4960529;28;20034;-87
2022/01/01 03:39:27;;;;;;;12.93;8.38;;;10.80;99.90;;;;;;4960762;28;20675;-87
2022/01/01 03:41:52;;;;;;;14.55;7.97;;;10.80;99.90;;;;;;4964008;28;20027;-86
2022/01/01 03:44:18;;;;;;;13.43;8.18;;;10.80;99.90;;;;;;4959689;28;20546;-87
2022/01/01 03:46:44;;;;;;;14.55;8.43;;;10.80;99.90;;;;;;4958945;28;20031;-87
2022/01/01 03:49:10;;;;;;;14.32;8.43;;;10.80;99.90;;;;;;4958957;28;20086;-87
2022/01/01 03:51:35;;;;;;;12.77;7.93;;;10.80;99.90;;;;;;4959403;28;20022;-87
2022/01/01 03:54:01;;;;;;;18.50;9.60;;;10.80;99.90;;;;;;4970549;28;20054;-86
2022/01/01 03:56:27;;;;;;;13.60;9.10;;;10.80;99.90;;;;;;4970995;28;20498;-87
2022/01/01 03:58:52;;;;;;;16.38;9.38;;;10.80;99.90;;;;;;4974292;28;20035;-88
2022/01/01 04:01:18;;;;;;;18.45;10.10;;;10.80;99.90;;;;;;4963087;28;20031;-87
2022/01/01 04:03:43;;;;;;;18.17;9.57;;;10.80;99.90;;;;;;4970967;28;20047;-87
2022/01/01 04:06:09;;;;;;;17.85;10.25;;;10.80;99.90;;;;;;4968074;28;20038;-88
2022/01/01 04:08:35;;;;;;;19.60;10.35;;;10.80;99.90;;;;;;4964836;28;20047;-87
2022/01/01 04:11:01;;;;;;;18.50;10.68;;;10.80;99.90;;;;;;4972609;28;20080;-87
2022/01/01 04:13:26;;;;;;;18.85;10.18;;;10.80;99.90;;;;;;4972540;28;20404;-87
2022/01/01 04:15:53;;;;;;;18.13;10.48;;;10.80;99.90;;;;;;4972439;28;20034;-87
2022/01/01 04:18:28;;;;;;;20.65;10.60;;;10.80;99.90;;;;;;4967501;28;20109;-87
2022/01/01 04:20:53;;;;;;;17.58;10.63;;;10.80;99.90;;;;;;4970885;28;20037;-87
2022/01/01 04:23:20;;;;;;;19.95;10.80;;;10.80;99.90;;;;;;4967579;28;20027;-87
2022/01/01 04:25:47;;;;;;;17.90;10.57;;;10.70;99.90;;;;;;4969836;28;20193;-87
2022/01/01 04:28:13;;;;;;;16.08;10.55;;;10.70;99.90;;;;;;4971842;28;20473;-86
2022/01/01 04:30:39;;;;;;;21.10;10.32;;;10.80;99.90;;;;;;4967039;28;20027;-86
2022/01/01 04:33:05;;;;;;;17.00;10.32;;;10.80;99.90;;;;;;4965530;28;20062;-87
2022/01/01 04:35:31;;;;;;;19.77;10.75;;;10.80;99.90;;;;;;4969260;28;20031;-86
2022/01/01 04:37:56;;;;;;;17.85;10.77;;;10.70;99.90;;;;;;4969344;28;20027;-87
2022/01/01 04:40:22;;;;;;;19.35;11.40;;;10.80;99.90;;;;;;4970931;28;20408;-87
2022/01/01 04:42:48;;;;;;;16.30;10.70;;;10.80;99.90;;;;;;4978637;28;20038;-87
2022/01/01 04:45:14;;;;;;;20.98;11.13;;;10.80;99.90;;;;;;4971522;28;20031;-86
2022/01/01 04:47:39;;;;;;;20.73;10.98;;;10.80;99.90;;;;;;4971008;28;20396;-87
2022/01/01 04:50:05;;;;;;;17.27;11.35;;;10.80;99.90;;;;;;4972841;28;20030;-87
2022/01/01 04:52:31;;;;;;;22.40;11.70;;;10.80;99.90;;;;;;4967557;28;20026;-87
2022/01/01 04:54:57;;;;;;;19.13;10.93;;;10.70;99.90;;;;;;4970309;28;20031;-88
2022/01/01 04:57:29;;;;;;;23.30;11.23;;;10.70;99.90;;;;;;4967260;28;20041;-87
2022/01/01 04:59:54;;;;;;;19.90;10.45;;;10.70;99.90;;;;;;4968293;28;20085;-87
2022/01/01 05:02:20;;;;;;;18.77;10.43;;;10.70;99.90;;;;;;4966844;28;20023;-87
2022/01/01 05:04:45;;;;;;;19.15;9.73;;;10.70;99.90;;;;;;4961136;28;20547;-87
2022/01/01 05:07:11;;;;;;;19.25;10.55;;;10.80;99.90;;;;;;4966698;28;20047;-88
2022/01/01 05:09:37;;;;;;;18.60;9.75;;;10.80;99.90;;;;;;4969403;28;20027;-87
2022/01/01 05:12:02;;;;;;;20.13;10.13;;;10.80;99.90;;;;;;4964452;28;20038;-87
2022/01/01 05:14:30;;;;;;;17.90;9.23;;;10.80;99.90;;;;;;4972579;28;20062;-86
2022/01/01 05:16:56;;;;;;;19.05;10.35;;;10.80;99.90;;;;;;4964599;28;20097;-88
2022/01/01 05:19:22;;;;;;;18.83;10.68;;;10.80;99.90;;;;;;4959204;28;20424;-87
2022/01/01 05:21:48;;;;;;;18.23;9.80;;;10.70;99.90;;;;;;4968558;28;20204;-87
2022/01/01 05:24:18;;;;;;;19.55;10.55;;;10.70;99.90;;;;;;4962657;28;20377;-87
2022/01/01 05:26:44;;;;;;;17.38;10.10;;;10.80;99.90;;;;;;4956535;28;20146;-88
2022/01/01 05:29:10;;;;;;;20.40;10.32;;;10.70;99.90;;;;;;4955752;28;20038;-87
2022/01/01 05:31:35;;;;;;;21.10;10.68;;;10.80;99.90;;;;;;4966494;28;20034;-87
2022/01/01 05:34:03;;;;;;;20.80;10.80;;;10.80;99.90;;;;;;4964197;28;20211;-86
2022/01/01 05:36:29;;;;;;;19.65;10.25;;;10.80;99.90;;;;;;4960618;28;20045;-86
2022/01/01 05:38:54;;;;;;;17.73;9.90;;;10.80;99.90;;;;;;4961569;28;20034;-86
2022/01/01 05:41:20;;;;;;;17.88;9.63;;;10.70;99.90;;;;;;4966580;28;20372;-87
2022/01/01 05:43:45;;;;;;;16.65;9.57;;;10.70;99.90;;;;;;4963455;28;20027;-87
2022/01/01 05:46:11;;;;;;;22.25;10.70;;;10.70;99.90;;;;;;4963412;28;20088;-87
2022/01/01 05:48:38;;;;;;;19.15;10.02;;;10.70;99.90;;;;;;4965430;28;20117;-89
2022/01/01 05:51:04;;;;;;;21.17;9.68;;;10.70;99.90;;;;;;4967379;28;20027;-87
2022/01/01 05:53:29;;;;;;;18.58;9.63;;;10.70;99.90;;;;;;4969266;28;20023;-87
2022/01/01 05:55:55;;;;;;;16.50;9.18;;;10.70;99.90;;;;;;4963853;28;20052;-87
2022/01/01 05:58:21;;;;;;;16.08;9.30;;;10.70;99.90;;;;;;4966455;28;20062;-87
2022/01/01 06:00:46;;;;;;;18.58;9.82;;;10.70;99.90;;;;;;4961960;28;20015;-87
2022/01/01 06:03:13;;;;;;;18.23;9.95;;;10.70;99.90;;;;;;4961182;28;20027;-88
2022/01/01 06:05:38;;;;;;;18.30;8.98;;;10.60;99.90;;;;;;4963709;28;20058;-87
2022/01/01 06:08:04;;;;;;;19.15;9.68;;;10.60;99.90;;;;;;4960963;28;20074;-87
2022/01/01 06:10:30;;;;;;;18.08;9.30;;;10.60;99.90;;;;;;4960066;28;20487;-87
2022/01/01 06:12:56;;;;;;;20.42;9.95;;;10.60;99.90;;;;;;4956814;28;20439;-88
2022/01/01 06:15:22;;;;;;;20.35;9.77;;;10.60;99.90;;;;;;4956217;28;20368;-88
2022/01/01 06:17:48;;;;;;;14.95;8.68;;;10.60;99.90;;;;;;4961180;28;20298;-87
2022/01/01 06:20:14;;;;;;;16.52;9.85;;;10.60;99.90;;;;;;4967234;28;20335;-87
2022/01/01 06:22:40;;;;;;;15.57;9.65;;;10.60;99.90;;;;;;4952690;28;20050;-87
2022/01/01 06:25:06;;;;;;;18.05;9.60;;;10.60;99.90;;;;;;4956696;28;23118;-87
2022/01/01 06:27:32;;;;;;;17.20;9.35;;;10.70;99.90;;;;;;4961823;28;20030;-87
2022/01/01 06:29:58;;;;;;;16.55;10.00;;;10.70;99.90;;;;;;4963855;28;20037;-87
2022/01/01 06:32:23;;;;;;;20.13;9.50;;;10.60;99.90;;;;;;4961877;28;20030;-87
2022/01/01 06:34:49;;;;;;;19.33;9.63;;;10.60;99.90;;;;;;4960602;28;20542;-87
2022/01/01 06:37:15;;;;;;;19.05;10.55;;;10.70;99.90;;;;;;4965764;28;20053;-86
2022/01/01 06:39:40;;;;;;;15.40;8.95;;;10.60;99.90;;;;;;4957184;28;20046;-87
2022/01/01 06:42:06;;;;;;;20.60;9.70;;;10.60;99.90;;;;;;4956580;28;20634;-87
2022/01/01 06:44:32;;;;;;;17.33;9.93;;;10.60;99.90;;;;;;4960571;28;20574;-87
2022/01/01 06:46:58;;;;;;;19.38;9.50;;;10.60;99.90;;;;;;4966078;28;20712;-85
2022/01/01 06:49:24;;;;;;;19.92;10.60;;;10.60;99.90;;;;;;4962593;28;20083;-77
2022/01/01 06:51:49;;;;;;;;;;;10.60;99.90;;;;;;4273321;28;10021654;-75
2022/01/01 06:54:15;;;;;;;19.98;11.43;;;10.60;99.90;;;;;;4953426;28;20105;-79
2022/01/01 06:56:40;;;;;;;19.05;10.10;;;10.70;99.90;;;;;;4946135;28;20117;-79
2022/01/01 06:59:07;;;;;;;21.10;9.98;;;10.60;99.90;;;;;;4953382;28;20046;-79
2022/01/01 07:01:32;;;;;;;22.73;10.20;;;10.60;99.90;;;;;;4955271;28;20035;-79
2022/01/01 07:03:58;;;;;;;19.83;10.70;;;10.60;99.90;;;;;;4951264;28;20066;-78
2022/01/01 07:06:23;;;;;;;21.02;10.48;;;10.70;99.90;;;;;;4946183;28;20081;-80
2022/01/01 07:08:49;;;;;;;17.05;9.95;;;10.70;99.90;;;;;;4958621;28;20158;-78
2022/01/01 07:11:15;;;;;;;17.83;10.57;;;10.60;99.90;;;;;;4958346;28;20026;-80
2022/01/01 07:13:40;;;;;;;18.08;9.55;;;10.60;99.90;;;;;;4968938;28;20043;-79
2022/01/01 07:16:06;;;;;;;16.98;10.18;;;10.60;99.90;;;;;;4959646;28;20027;-80
2022/01/01 07:18:32;;;;;;;18.67;9.95;;;10.60;99.90;;;;;;4958354;28;20034;-80
2022/01/01 07:20:58;;;;;;;17.15;9.98;;;10.60;99.90;;;;;;4953083;28;20487;-80
2022/01/01 07:23:24;;;;;;;20.08;10.77;;;10.60;99.90;;;;;;4957819;28;20173;-80
2022/01/01 07:25:50;;;;;;;16.83;9.90;;;10.60;99.90;;;;;;4958148;28;20058;-78
2022/01/01 07:28:16;;;;;;;17.92;10.25;;;10.60;99.90;;;;;;4957217;28;20086;-80
2022/01/01 07:30:43;;;;;;;17.20;10.30;;;10.60;99.90;;;;;;4963345;28;20450;-80
2022/01/01 07:33:12;;;;;;;20.00;10.40;;;10.60;99.90;;;;;;4960827;28;20058;-80
2022/01/01 07:35:38;;;;;;;15.60;9.48;;;10.60;99.90;;;;;;4965272;28;20071;-79
2022/01/01 07:38:04;;;;;;;18.00;10.65;;;10.60;99.90;;;;;;4956024;28;20491;-79
2022/01/01 07:40:32;;;;;;;19.17;11.02;;;10.60;99.90;;;;;;4954229;28;20059;-79
2022/01/01 07:42:58;;;;;;;14.60;10.13;;;10.60;99.90;;;;;;4968702;28;20042;-79
2022/01/01 07:45:23;;;;;;;20.10;11.32;;;10.60;99.90;;;;;;4959098;28;20065;-80
2022/01/01 07:47:49;;;;;;;16.30;10.63;;;10.60;99.90;;;;;;4960812;28;20042;-80
2022/01/01 07:50:15;;;;;;;19.88;11.07;;;10.60;99.90;;;;;;4965468;28;20086;-80
2022/01/01 07:52:42;;;;;;;18.98;10.32;;;10.60;99.90;;;;;;4964850;28;20023;-80
2022/01/01 07:55:08;;;;;;;19.90;9.80;;;10.60;99.90;;;;;;4958368;28;20097;-79
2022/01/01 07:57:34;;;;;;;16.60;9.70;;;10.60;99.90;;;;;;4967334;28;20030;-78
2022/01/01 08:00:00;;;;;;;14.60;9.73;;;10.60;99.90;;;;;;4961345;28;20458;-79
2022/01/01 08:02:25;;;;;;;19.02;10.02;;;10.60;99.90;;;;;;4963444;28;20043;-79
2022/01/01 08:04:51;;;;;;;14.80;9.80;;;10.70;99.90;;;;;;4959641;28;20391;-80
2022/01/01 08:07:17;;;;;;;17.00;9.50;;;10.60;99.90;;;;;;4961505;28;20507;-81
2022/01/01 08:09:42;;;;;;;20.05;10.38;;;10.60;99.90;;;;;;4961515;28;20487;-81
2022/01/01 08:12:08;;;;;;;16.63;8.98;;;10.70;99.90;;;;;;4956948;28;21090;-81
2022/01/01 08:14:34;;;;;;;18.85;10.77;;;10.70;99.90;;;;;;4961973;28;20039;-81
2022/01/01 08:17:04;;;;;;;20.05;11.10;;;10.80;99.90;;;;;;4968375;28;20372;-81
2022/01/01 08:19:30;;;;;;;21.20;10.82;;;10.80;99.90;;;;;;4958677;28;20396;-81
2022/01/01 08:21:56;;;;;;;15.90;10.48;;;10.80;99.90;;;;;;4962613;28;20039;-81
2022/01/01 08:24:23;;;;;;;19.08;11.30;;;10.80;99.90;;;;;;4956229;28;20034;-81
2022/01/01 08:26:50;;;;;;;18.52;10.48;;;10.80;99.90;;;;;;4946531;28;20039;-81
2022/01/01 08:29:16;;;;;;;17.83;9.80;;;10.80;99.90;;;;;;4955609;28;20030;-81
2022/01/01 08:31:42;;;;;;;14.27;10.07;;;10.80;99.90;;;;;;4968381;28;20557;-80
2022/01/01 08:34:08;;;;;;;19.33;10.13;;;10.80;99.90;;;;;;4959443;28;20043;-81
2022/01/01 08:36:33;;;;;;;21.17;9.63;;;10.80;99.90;;;;;;4960720;28;20058;-81
2022/01/01 08:38:59;;;;;;;18.85;9.40;;;10.80;99.90;;;;;;4962337;28;20031;-78
2022/01/01 08:41:25;;;;;;;18.70;9.30;;;10.80;99.90;;;;;;4952318;28;20053;-80
2022/01/01 08:43:53;;;;;;;25.65;12.18;;;10.80;99.90;;;;;;4964847;28;20057;-81
2022/01/01 08:46:19;;;;;;;18.08;10.43;;;10.90;99.90;;;;;;4961022;28;20028;-80
2022/01/01 08:48:44;;;;;;;17.35;10.07;;;10.80;99.90;;;;;;4957608;28;20299;-80
2022/01/01 08:51:16;;;;;;;21.30;12.13;;;10.90;99.90;;;;;;4958948;28;20085;-81
2022/01/01 08:53:42;;;;;;;27.83;15.90;;;10.90;99.90;;;;;;4955681;28;20324;-79
2022/01/01 08:56:09;;;;;;;22.85;12.90;;;10.90;99.90;;;;;;4961070;28;20073;-79
2022/01/01 08:58:34;;;;;;;20.45;11.30;;;10.90;99.90;;;;;;4959433;28;20439;-78
2022/01/01 09:01:01;;;;;;;20.80;13.52;;;10.90;99.90;;;;;;4961011;28;20110;-78
2022/01/01 09:03:26;;;;;;;18.50;10.32;;;10.90;99.90;;;;;;4962028;28;20026;-78
2022/01/01 09:05:52;;;;;;;17.33;9.10;;;10.90;99.90;;;;;;4958401;28;20035;-78
2022/01/01 09:08:18;;;;;;;14.38;8.57;;;10.90;99.90;;;;;;4956070;28;20075;-78
2022/01/01 09:10:43;;;;;;;24.05;12.68;;;10.90;99.90;;;;;;4958567;28;20038;-78
2022/01/01 09:13:09;;;;;;;19.55;14.50;;;10.90;99.90;;;;;;4958948;28;20311;-78
2022/01/01 09:15:35;;;;;;;18.15;12.05;;;10.90;99.90;;;;;;4960223;28;20034;-78
2022/01/01 09:18:00;;;;;;;17.33;11.02;;;10.90;99.90;;;;;;4956046;28;20027;-78
2022/01/01 09:20:26;;;;;;;19.13;11.57;;;10.90;99.90;;;;;;4962567;28;20601;-78
2022/01/01 09:22:51;;;;;;;15.95;9.30;;;10.90;99.90;;;;;;4960978;28;20054;-78
2022/01/01 09:25:17;;;;;;;18.88;9.05;;;10.90;99.90;;;;;;4964162;28;20038;-79
2022/01/01 09:27:42;;;;;;;19.38;9.77;;;10.90;99.90;;;;;;4959920;28;20554;-79
2022/01/01 09:30:08;;;;;;;21.98;10.23;;;10.90;99.90;;;;;;4963698;28;20513;-79
2022/01/01 09:32:35;;;;;;;15.68;9.70;;;10.90;99.90;;;;;;4957573;28;20368;-79
2022/01/01 09:35:02;;;;;;;14.52;10.13;;;10.90;99.90;;;;;;4965523;28;20404;-80
2022/01/01 09:37:29;;;;;;;15.00;9.07;;;11.00;99.90;;;;;;4963741;28;20066;-80
2022/01/01 09:39:56;;;;;;;15.25;8.48;;;11.00;99.90;;;;;;4959703;28;20093;-81
2022/01/01 09:42:22;;;;;;;14.27;9.50;;;11.10;99.90;;;;;;4960890;28;20098;-80
2022/01/01 09:44:49;;;;;;;17.33;11.15;;;11.10;99.90;;;;;;4965342;28;20501;-79
2022/01/01 09:47:15;;;;;;;15.85;9.80;;;11.10;99.90;;;;;;4958540;28;20038;-78
2022/01/01 09:49:41;;;;;;;20.75;9.68;;;11.10;99.90;;;;;;4958462;28;20182;-78
2022/01/01 09:52:09;;;;;;;14.80;9.30;;;11.10;99.90;;;;;;4956485;28;20034;-81
2022/01/01 09:54:35;;;;;;;17.13;8.93;;;11.10;99.90;;;;;;4963115;28;20059;-79
2022/01/01 09:57:00;;;;;;;17.15;8.13;;;11.10;99.90;;;;;;4959683;28;20145;-78
2022/01/01 09:59:26;;;;;;;14.82;8.60;;;11.20;99.90;;;;;;4956785;28;20105;-79
2022/01/01 10:01:52;;;;;;;13.40;8.00;;;11.20;99.90;;;;;;4963654;28;20046;-81
2022/01/01 10:04:18;;;;;;;17.38;8.18;;;11.30;99.90;;;;;;4958193;28;20028;-78
2022/01/01 10:07:03;;;;;;;13.85;8.02;;;11.30;99.90;;;;;;4956575;28;20296;-79
2022/01/01 10:09:33;;;;;;;15.65;7.10;;;11.30;99.90;;;;;;4965222;28;20039;-79
2022/01/01 10:12:00;;;;;;;14.82;7.28;;;11.40;99.90;;;;;;4964858;28;20114;-81
2022/01/01 10:14:36;;;;;;;15.48;8.23;;;11.40;99.90;;;;;;4959521;28;20038;-79
2022/01/01 10:17:12;;;;;;;15.50;7.50;;;11.40;99.90;;;;;;4960260;28;20050;-80
2022/01/01 10:19:39;;;;;;;13.63;6.93;;;11.40;99.90;;;;;;4956117;28;20486;-79
2022/01/01 10:22:06;;;;;;;14.95;7.20;;;11.40;99.90;;;;;;4958239;28;20049;-78
2022/01/01 10:27:42;;;;;;;11.43;7.30;;;11.40;99.90;;;;;;4960052;28;20097;-78
2022/01/01 10:30:03;;;;;;;21.77;8.80;;;11.40;99.90;;;;;;4963330;28;20049;-78
2022/01/01 10:32:28;;;;;;;14.20;7.30;;;11.40;99.90;;;;;;4953697;28;20038;-78
2022/01/01 10:34:54;;;;;;;11.07;6.78;;;11.40;99.90;;;;;;4960282;28;20035;-78
2022/01/01 10:37:27;;;;;;;15.60;6.95;;;11.50;99.90;;;;;;4957967;28;20031;-78
2022/01/01 10:39:54;;;;;;;14.77;7.22;;;11.50;99.90;;;;;;4960181;28;20069;-78
2022/01/01 10:42:21;;;;;;;14.98;7.07;;;11.50;99.90;;;;;;4958128;28;20133;-78
2022/01/01 10:44:49;;;;;;;13.52;6.32;;;11.50;99.90;;;;;;4966879;28;20209;-78
2022/01/01 10:47:32;;;;;;;11.88;5.78;;;11.60;99.90;;;;;;4968922;28;20038;-78
2022/01/01 10:50:31;;;;;;;13.75;6.20;;;11.50;99.90;;;;;;4958170;28;20401;-78
2022/01/01 10:52:49;;;;;;;19.48;7.18;;;11.50;99.90;;;;;;4955517;28;20039;-78
2022/01/01 10:55:16;;;;;;;14.90;7.72;;;11.60;99.90;;;;;;4960369;28;20365;-78
2022/01/01 10:58:03;;;;;;;12.43;6.43;;;11.60;99.90;;;;;;4960551;28;20026;-76
2022/01/01 11:00:28;;;;;;;12.60;6.28;;;11.60;99.90;;;;;;4954261;28;20147;-78
2022/01/01 11:02:56;;;;;;;15.48;6.32;;;11.60;99.90;;;;;;4960658;28;20038;-77
2022/01/01 11:05:33;;;;;;;12.63;5.65;;;11.60;99.90;;;;;;4956800;28;20121;-79
2022/01/01 11:08:00;;;;;;;9.23;5.35;;;11.60;99.90;;;;;;4960201;28;20063;-76
2022/01/01 11:10:27;;;;;;;15.73;6.18;;;11.70;99.90;;;;;;4956152;28;20031;-77
2022/01/01 11:12:55;;;;;;;15.60;6.55;;;11.70;99.90;;;;;;4973359;28;20039;-76
2022/01/01 11:15:21;;;;;;;17.67;6.95;;;11.70;99.90;;;;;;4963925;28;20035;-76
2022/01/01 11:17:47;;;;;;;15.52;7.22;;;11.70;99.90;;;;;;4962727;28;20046;-79
2022/01/01 11:20:14;;;;;;;12.45;6.95;;;11.70;99.90;;;;;;4955195;28;20030;-79
2022/01/01 11:22:41;;;;;;;20.02;9.57;;;11.70;99.90;;;;;;4958685;28;20327;-79
2022/01/01 11:25:07;;;;;;;17.13;9.57;;;11.70;99.90;;;;;;4951188;28;20031;-79
2022/01/01 11:27:32;;;;;;;13.43;6.50;;;11.70;99.90;;;;;;4956328;28;20031;-78
2022/01/01 11:29:59;;;;;;;12.40;6.22;;;11.80;99.90;;;;;;4960550;28;20487;-79
2022/01/01 11:33:10;;;;;;;14.18;5.93;;;11.80;99.90;;;;;;4953945;28;20120;-79
2022/01/01 11:35:41;;;;;;;14.07;6.45;;;11.80;99.90;;;;;;4954254;28;20028;-81
2022/01/01 11:38:09;;;;;;;10.25;5.30;;;11.80;99.90;;;;;;4967157;28;20562;-82
2022/01/01 11:40:55;;;;;;;11.98;5.32;;;11.80;99.90;;;;;;4960062;28;20451;-82
2022/01/01 11:43:37;;;;;;;10.32;4.75;;;11.80;99.90;;;;;;4955972;28;20027;-78
2022/01/01 11:46:15;;;;;;;12.10;4.72;;;11.80;99.90;;;;;;4955035;28;20035;-79
2022/01/01 11:48:45;;;;;;;16.60;4.70;;;11.90;99.90;;;;;;4972189;28;20442;-79
2022/01/01 11:51:32;;;;;;;20.13;5.07;;;11.90;99.90;;;;;;4955811;28;20491;-79
2022/01/01 11:54:35;;;;;;;12.52;4.72;;;11.90;99.90;;;;;;4953552;28;20074;-79
2022/01/01 11:57:05;;;;;;;12.68;4.88;;;11.90;99.90;;;;;;4953396;28;20031;-78
2022/01/01 11:59:38;;;;;;;10.95;4.90;;;11.90;99.90;;;;;;4956640;28;20049;-78
2022/01/01 12:02:19;;;;;;;15.45;6.85;;;11.90;99.90;;;;;;4267405;28;10001605;-79
2022/01/01 12:04:47;;;;;;;12.82;5.97;;;12.00;99.90;;;;;;4960107;28;20062;-79
2022/01/01 12:07:16;;;;;;;18.10;7.88;;;11.90;99.90;;;;;;4952912;28;20063;-78
2022/01/01 12:10:06;;;;;;;14.43;6.95;;;12.00;99.90;;;;;;4955104;28;20536;-78
2022/01/01 12:12:49;;;;;;;12.73;5.38;;;12.00;99.90;;;;;;4954162;28;20023;-78
2022/01/01 12:15:21;;;;;;;14.20;5.10;;;12.00;99.90;;;;;;4960128;28;20062;-79
2022/01/01 12:18:00;;;;;;;12.13;4.53;;;12.00;99.90;;;;;;4966141;28;20027;-79
2022/01/01 12:20:50;;;;;;;12.70;4.30;;;12.00;99.90;;;;;;4958972;28;20035;-78
2022/01/01 12:23:23;;;;;;;11.05;7.28;;;12.00;99.90;;;;;;4959991;28;20935;-79
2022/01/01 12:25:50;;;;;;;20.67;9.27;;;11.90;99.90;;;;;;4958378;28;20491;-79
2022/01/01 12:28:21;;;;;;;13.00;6.75;;;11.90;99.90;;;;;;4967200;28;20046;-81
2022/01/01 12:30:50;;;;;;;15.52;7.15;;;11.90;99.90;;;;;;4959294;28;20455;-79
2022/01/01 12:33:41;;;;;;;14.80;7.88;;;12.00;99.90;;;;;;4963895;28;20451;-79
2022/01/01 12:36:21;;;;;;;11.27;5.45;;;12.00;99.90;;;;;;4965262;28;20580;-81
2022/01/01 12:38:49;;;;;;;9.35;4.07;;;12.00;99.90;;;;;;4961279;28;20422;-81
2022/01/01 12:41:23;;;;;;;9.65;3.85;;;12.00;99.90;;;;;;4965876;28;20042;-81